sensor_id;sensor_type;location;lat;lon;timestamp;temperature;humidity
7196;DHT22;3639;51.308;5.624;2022-10-16T00:00:39;12.80;99.90
7196;DHT22;3639;51.308;5.624;2022-10-16T00:03:06;12.80;99.90
7196;DHT22;3639;51.308;5.624;2022-10-16T00:05:37;12.70;99.90
7196;DHT22;3639;51.308;5.624;2022-10-16T00:08:03;12.70;99.90
7196;DHT22;3639;51.308;5.624;2022-10-16T00:10:28;12.70;99.90
7196;DHT22;3639;51.308;5.624;2022-10-16T00:12:54;12.70;99.90
7196;DHT22;3639;51.308;5.624;2022-10-16T00:15:20;12.60;99.90
7196;DHT22;3639;51.308;5.624;2022-10-16T00:17:45;12.60;99.90
7196;DHT22;3639;51.308;5.624;2022-10-16T00:20:11;12.60;99.90
7196;DHT22;3639;51.308;5.624;2022-10-16T00:22:37;12.60;99.90
7196;DHT22;3639;51.308;5.624;2022-10-16T00:25:02;12.60;99.90
7196;DHT22;3639;51.308;5.624;2022-10-16T00:27:28;12.60;99.90
7196;DHT22;3639;51.308;5.624;2022-10-16T00:29:54;12.50;99.90
7196;DHT22;3639;51.308;5.624;2022-10-16T00:32:20;12.50;99.90
7196;DHT22;3639;51.308;5.624;2022-10-16T00:34:46;12.50;99.90
7196;DHT22;3639;51.308;5.624;2022-10-16T00:37:12;12.50;99.90
7196;DHT22;3639;51.308;5.624;2022-10-16T00:39:38;12.50;99.90
7196;DHT22;3639;51.308;5.624;2022-10-16T00:42:04;12.50;99.90
7196;DHT22;3639;51.308;5.624;2022-10-16T00:47:10;12.50;99.90
7196;DHT22;3639;51.308;5.624;2022-10-16T00:49:38;12.40;99.90
7196;DHT22;3639;51.308;5.624;2022-10-16T00:52:04;12.40;99.90
7196;DHT22;3639;51.308;5.624;2022-10-16T00:54:31;12.30;99.90
7196;DHT22;3639;51.308;5.624;2022-10-16T00:57:00;12.40;99.90
7196;DHT22;3639;51.308;5.624;2022-10-16T00:59:29;12.40;99.90
7196;DHT22;3639;51.308;5.624;2022-10-16T01:01:56;12.30;99.90
7196;DHT22;3639;51.308;5.624;2022-10-16T01:04:23;12.30;99.90
7196;DHT22;3639;51.308;5.624;2022-10-16T01:12:57;12.20;99.90
7196;DHT22;3639;51.308;5.624;2022-10-16T01:18:14;12.20;99.90
7196;DHT22;3639;51.308;5.624;2022-10-16T01:26:15;12.10;99.90
7196;DHT22;3639;51.308;5.624;2022-10-16T01:29:18;12.10;99.90
7196;DHT22;3639;51.308;5.624;2022-10-16T01:31:50;12.00;99.90
7196;DHT22;3639;51.308;5.624;2022-10-16T01:34:34;12.00;99.90
7196;DHT22;3639;51.308;5.624;2022-10-16T01:37:08;11.90;99.90
7196;DHT22;3639;51.308;5.624;2022-10-16T01:39:36;11.90;99.90
7196;DHT22;3639;51.308;5.624;2022-10-16T01:42:11;11.90;99.90
7196;DHT22;3639;51.308;5.624;2022-10-16T01:44:38;11.80;99.90
7196;DHT22;3639;51.308;5.624;2022-10-16T01:47:06;11.80;99.90
7196;DHT22;3639;51.308;5.624;2022-10-16T01:49:35;11.80;99.90
7196;DHT22;3639;51.308;5.624;2022-10-16T01:52:07;11.80;99.90
7196;DHT22;3639;51.308;5.624;2022-10-16T01:54:37;11.80;99.90
7196;DHT22;3639;51.308;5.624;2022-10-16T01:57:05;11.80;99.90
7196;DHT22;3639;51.308;5.624;2022-10-16T01:59:33;11.80;99.90
7196;DHT22;3639;51.308;5.624;2022-10-16T02:02:06;11.80;99.90
7196;DHT22;3639;51.308;5.624;2022-10-16T02:05:09;11.80;99.90
7196;DHT22;3639;51.308;5.624;2022-10-16T02:07:38;11.80;99.90
7196;DHT22;3639;51.308;5.624;2022-10-16T02:10:04;11.80;99.90
7196;DHT22;3639;51.308;5.624;2022-10-16T02:12:33;11.80;99.90
7196;DHT22;3639;51.308;5.624;2022-10-16T02:15:00;11.80;99.90
7196;DHT22;3639;51.308;5.624;2022-10-16T02:17:26;11.80;99.90
7196;DHT22;3639;51.308;5.624;2022-10-16T02:19:54;11.80;99.90
7196;DHT22;3639;51.308;5.624;2022-10-16T02:22:35;11.90;99.90
7196;DHT22;3639;51.308;5.624;2022-10-16T02:25:22;11.80;99.90
7196;DHT22;3639;51.308;5.624;2022-10-16T02:28:23;11.90;99.90
7196;DHT22;3639;51.308;5.624;2022-10-16T02:33:23;12.00;99.90
7196;DHT22;3639;51.308;5.624;2022-10-16T02:35:50;12.00;99.90
7196;DHT22;3639;51.308;5.624;2022-10-16T02:38:17;12.00;99.90
7196;DHT22;3639;51.308;5.624;2022-10-16T02:40:44;12.00;99.90
7196;DHT22;3639;51.308;5.624;2022-10-16T02:43:10;12.00;99.90
7196;DHT22;3639;51.308;5.624;2022-10-16T02:45:36;11.90;99.90
7196;DHT22;3639;51.308;5.624;2022-10-16T02:48:01;11.90;99.90
7196;DHT22;3639;51.308;5.624;2022-10-16T02:50:27;12.00;99.90
7196;DHT22;3639;51.308;5.624;2022-10-16T02:52:53;12.10;99.90
7196;DHT22;3639;51.308;5.624;2022-10-16T02:55:19;12.20;99.90
7196;DHT22;3639;51.308;5.624;2022-10-16T02:57:44;12.20;99.90
7196;DHT22;3639;51.308;5.624;2022-10-16T03:00:13;12.20;99.90
7196;DHT22;3639;51.308;5.624;2022-10-16T03:02:39;12.20;99.90
7196;DHT22;3639;51.308;5.624;2022-10-16T03:05:05;12.20;99.90
7196;DHT22;3639;51.308;5.624;2022-10-16T03:07:31;12.10;99.90
7196;DHT22;3639;51.308;5.624;2022-10-16T03:09:56;12.10;99.90
7196;DHT22;3639;51.308;5.624;2022-10-16T03:12:26;12.10;99.90
7196;DHT22;3639;51.308;5.624;2022-10-16T03:14:51;12.10;99.90
7196;DHT22;3639;51.308;5.624;2022-10-16T03:17:17;12.20;99.90
7196;DHT22;3639;51.308;5.624;2022-10-16T03:19:42;12.10;99.90
7196;DHT22;3639;51.308;5.624;2022-10-16T03:22:08;12.10;99.90
7196;DHT22;3639;51.308;5.624;2022-10-16T03:24:34;12.10;99.90
7196;DHT22;3639;51.308;5.624;2022-10-16T03:26:59;12.20;99.90
7196;DHT22;3639;51.308;5.624;2022-10-16T03:29:26;12.10;99.90
7196;DHT22;3639;51.308;5.624;2022-10-16T03:31:53;12.20;99.90
7196;DHT22;3639;51.308;5.624;2022-10-16T03:34:18;12.20;99.90
7196;DHT22;3639;51.308;5.624;2022-10-16T03:36:44;12.10;99.90
7196;DHT22;3639;51.308;5.624;2022-10-16T03:39:09;12.10;99.90
7196;DHT22;3639;51.308;5.624;2022-10-16T03:41:35;12.10;99.90
7196;DHT22;3639;51.308;5.624;2022-10-16T03:44:01;12.20;99.90
7196;DHT22;3639;51.308;5.624;2022-10-16T03:46:26;12.30;99.90
7196;DHT22;3639;51.308;5.624;2022-10-16T03:48:52;12.30;99.90
7196;DHT22;3639;51.308;5.624;2022-10-16T03:51:18;12.30;99.90
7196;DHT22;3639;51.308;5.624;2022-10-16T03:53:43;12.30;99.90
7196;DHT22;3639;51.308;5.624;2022-10-16T03:56:09;12.40;99.90
7196;DHT22;3639;51.308;5.624;2022-10-16T03:58:35;12.40;99.90
7196;DHT22;3639;51.308;5.624;2022-10-16T04:01:00;12.40;99.90
7196;DHT22;3639;51.308;5.624;2022-10-16T04:03:26;12.40;99.90
7196;DHT22;3639;51.308;5.624;2022-10-16T04:05:52;12.30;99.90
7196;DHT22;3639;51.308;5.624;2022-10-16T04:08:17;12.40;99.90
7196;DHT22;3639;51.308;5.624;2022-10-16T04:10:43;12.30;99.90
7196;DHT22;3639;51.308;5.624;2022-10-16T04:13:09;12.40;99.90
7196;DHT22;3639;51.308;5.624;2022-10-16T04:15:35;12.40;99.90
7196;DHT22;3639;51.308;5.624;2022-10-16T04:18:00;12.40;99.90
7196;DHT22;3639;51.308;5.624;2022-10-16T04:20:26;12.50;99.90
7196;DHT22;3639;51.308;5.624;2022-10-16T04:22:52;12.50;99.90
7196;DHT22;3639;51.308;5.624;2022-10-16T04:25:17;12.50;99.90
7196;DHT22;3639;51.308;5.624;2022-10-16T04:27:43;12.50;99.90
7196;DHT22;3639;51.308;5.624;2022-10-16T04:30:09;12.50;99.90
7196;DHT22;3639;51.308;5.624;2022-10-16T04:32:35;12.50;99.90
7196;DHT22;3639;51.308;5.624;2022-10-16T04:35:00;12.50;99.90
7196;DHT22;3639;51.308;5.624;2022-10-16T04:37:26;12.40;99.90
7196;DHT22;3639;51.308;5.624;2022-10-16T04:39:53;12.40;99.90
7196;DHT22;3639;51.308;5.624;2022-10-16T04:42:18;12.40;99.90
7196;DHT22;3639;51.308;5.624;2022-10-16T04:44:44;12.40;99.90
7196;DHT22;3639;51.308;5.624;2022-10-16T04:47:10;12.30;99.90
7196;DHT22;3639;51.308;5.624;2022-10-16T04:49:35;12.40;99.90
7196;DHT22;3639;51.308;5.624;2022-10-16T04:52:01;12.40;99.90
7196;DHT22;3639;51.308;5.624;2022-10-16T04:54:27;12.40;99.90
7196;DHT22;3639;51.308;5.624;2022-10-16T04:56:52;12.40;99.90
7196;DHT22;3639;51.308;5.624;2022-10-16T04:59:19;12.30;99.90
7196;DHT22;3639;51.308;5.624;2022-10-16T05:01:45;12.30;99.90
7196;DHT22;3639;51.308;5.624;2022-10-16T05:04:11;12.40;99.90
7196;DHT22;3639;51.308;5.624;2022-10-16T05:06:37;12.40;99.90
7196;DHT22;3639;51.308;5.624;2022-10-16T05:09:04;12.40;99.90
7196;DHT22;3639;51.308;5.624;2022-10-16T05:11:30;12.30;99.90
7196;DHT22;3639;51.308;5.624;2022-10-16T05:13:55;12.30;99.90
7196;DHT22;3639;51.308;5.624;2022-10-16T05:16:21;12.30;99.90
7196;DHT22;3639;51.308;5.624;2022-10-16T05:18:46;12.30;99.90
7196;DHT22;3639;51.308;5.624;2022-10-16T05:21:12;12.30;99.90
7196;DHT22;3639;51.308;5.624;2022-10-16T05:23:38;12.20;99.90
7196;DHT22;3639;51.308;5.624;2022-10-16T05:26:03;12.30;99.90
7196;DHT22;3639;51.308;5.624;2022-10-16T05:28:29;12.20;99.90
7196;DHT22;3639;51.308;5.624;2022-10-16T05:30:56;12.20;99.90
7196;DHT22;3639;51.308;5.624;2022-10-16T05:33:23;12.20;99.90
7196;DHT22;3639;51.308;5.624;2022-10-16T05:35:49;12.20;99.90
7196;DHT22;3639;51.308;5.624;2022-10-16T05:38:16;12.20;99.90
7196;DHT22;3639;51.308;5.624;2022-10-16T05:40:43;12.20;99.90
7196;DHT22;3639;51.308;5.624;2022-10-16T05:43:09;12.10;99.90
7196;DHT22;3639;51.308;5.624;2022-10-16T05:45:34;12.10;99.90
7196;DHT22;3639;51.308;5.624;2022-10-16T05:48:00;12.10;99.90
7196;DHT22;3639;51.308;5.624;2022-10-16T05:50:26;12.10;99.90
7196;DHT22;3639;51.308;5.624;2022-10-16T05:52:52;12.10;99.90
7196;DHT22;3639;51.308;5.624;2022-10-16T05:55:18;12.10;99.90
7196;DHT22;3639;51.308;5.624;2022-10-16T05:57:43;12.10;99.90
7196;DHT22;3639;51.308;5.624;2022-10-16T06:00:10;12.20;99.90
7196;DHT22;3639;51.308;5.624;2022-10-16T06:02:35;12.20;99.90
7196;DHT22;3639;51.308;5.624;2022-10-16T06:05:01;12.20;99.90
7196;DHT22;3639;51.308;5.624;2022-10-16T06:07:27;12.20;99.90
7196;DHT22;3639;51.308;5.624;2022-10-16T06:09:53;12.30;99.90
7196;DHT22;3639;51.308;5.624;2022-10-16T06:12:19;12.30;99.90
7196;DHT22;3639;51.308;5.624;2022-10-16T06:14:45;12.20;99.90
7196;DHT22;3639;51.308;5.624;2022-10-16T06:17:13;12.30;99.90
7196;DHT22;3639;51.308;5.624;2022-10-16T06:19:39;12.20;99.90
7196;DHT22;3639;51.308;5.624;2022-10-16T06:22:05;12.10;99.90
7196;DHT22;3639;51.308;5.624;2022-10-16T06:24:30;12.20;99.90
7196;DHT22;3639;51.308;5.624;2022-10-16T06:26:56;12.10;99.90
7196;DHT22;3639;51.308;5.624;2022-10-16T06:29:22;12.10;99.90
7196;DHT22;3639;51.308;5.624;2022-10-16T06:31:47;12.10;99.90
7196;DHT22;3639;51.308;5.624;2022-10-16T06:34:13;12.00;99.90
7196;DHT22;3639;51.308;5.624;2022-10-16T06:36:39;12.10;99.90
7196;DHT22;3639;51.308;5.624;2022-10-16T06:39:05;12.00;99.90
7196;DHT22;3639;51.308;5.624;2022-10-16T06:41:32;12.10;99.90
7196;DHT22;3639;51.308;5.624;2022-10-16T06:43:58;12.00;99.90
7196;DHT22;3639;51.308;5.624;2022-10-16T06:46:24;12.10;99.90
7196;DHT22;3639;51.308;5.624;2022-10-16T06:48:50;12.10;99.90
7196;DHT22;3639;51.308;5.624;2022-10-16T06:51:18;12.10;99.90
7196;DHT22;3639;51.308;5.624;2022-10-16T06:53:46;12.10;99.90
7196;DHT22;3639;51.308;5.624;2022-10-16T06:56:20;12.10;99.90
7196;DHT22;3639;51.308;5.624;2022-10-16T06:58:46;12.20;99.90
7196;DHT22;3639;51.308;5.624;2022-10-16T07:01:13;12.20;99.90
7196;DHT22;3639;51.308;5.624;2022-10-16T07:03:40;12.30;99.90
7196;DHT22;3639;51.308;5.624;2022-10-16T07:06:08;12.30;99.90
7196;DHT22;3639;51.308;5.624;2022-10-16T07:08:35;12.30;99.90
7196;DHT22;3639;51.308;5.624;2022-10-16T07:11:04;12.30;99.90
7196;DHT22;3639;51.308;5.624;2022-10-16T07:13:30;12.50;99.90
7196;DHT22;3639;51.308;5.624;2022-10-16T07:15:57;12.60;99.90
7196;DHT22;3639;51.308;5.624;2022-10-16T07:18:23;12.60;99.90
7196;DHT22;3639;51.308;5.624;2022-10-16T07:20:52;12.60;99.90
7196;DHT22;3639;51.308;5.624;2022-10-16T07:23:17;12.60;99.90
7196;DHT22;3639;51.308;5.624;2022-10-16T07:25:43;12.60;99.90
7196;DHT22;3639;51.308;5.624;2022-10-16T07:28:09;12.70;99.90
7196;DHT22;3639;51.308;5.624;2022-10-16T07:30:36;12.80;99.90
7196;DHT22;3639;51.308;5.624;2022-10-16T07:33:02;12.90;99.90
7196;DHT22;3639;51.308;5.624;2022-10-16T07:35:28;13.00;99.90
7196;DHT22;3639;51.308;5.624;2022-10-16T07:37:54;13.10;99.90
7196;DHT22;3639;51.308;5.624;2022-10-16T07:40:20;13.20;99.90
7196;DHT22;3639;51.308;5.624;2022-10-16T07:42:45;13.30;99.90
7196;DHT22;3639;51.308;5.624;2022-10-16T07:45:11;13.40;99.90
7196;DHT22;3639;51.308;5.624;2022-10-16T07:47:37;13.50;99.90
7196;DHT22;3639;51.308;5.624;2022-10-16T07:50:03;13.60;99.90
7196;DHT22;3639;51.308;5.624;2022-10-16T07:52:28;13.70;99.90
7196;DHT22;3639;51.308;5.624;2022-10-16T07:54:54;13.80;99.90
7196;DHT22;3639;51.308;5.624;2022-10-16T07:57:19;13.90;99.90
7196;DHT22;3639;51.308;5.624;2022-10-16T07:59:45;13.90;99.90
7196;DHT22;3639;51.308;5.624;2022-10-16T08:02:11;14.00;99.90
7196;DHT22;3639;51.308;5.624;2022-10-16T08:04:37;14.10;99.90
7196;DHT22;3639;51.308;5.624;2022-10-16T08:07:03;14.30;99.90
7196;DHT22;3639;51.308;5.624;2022-10-16T08:09:28;14.40;99.90
7196;DHT22;3639;51.308;5.624;2022-10-16T08:11:54;14.50;99.90
7196;DHT22;3639;51.308;5.624;2022-10-16T08:14:20;14.50;99.90
7196;DHT22;3639;51.308;5.624;2022-10-16T08:16:45;14.70;99.90
7196;DHT22;3639;51.308;5.624;2022-10-16T08:19:11;14.80;99.90
7196;DHT22;3639;51.308;5.624;2022-10-16T08:21:36;14.80;99.90
7196;DHT22;3639;51.308;5.624;2022-10-16T08:24:02;14.90;99.90
7196;DHT22;3639;51.308;5.624;2022-10-16T08:26:28;14.90;99.90
7196;DHT22;3639;51.308;5.624;2022-10-16T08:28:54;15.00;99.90
7196;DHT22;3639;51.308;5.624;2022-10-16T08:31:20;15.00;99.90
7196;DHT22;3639;51.308;5.624;2022-10-16T08:33:46;15.10;99.90
7196;DHT22;3639;51.308;5.624;2022-10-16T08:36:13;15.20;99.90
7196;DHT22;3639;51.308;5.624;2022-10-16T08:38:40;15.20;99.90
7196;DHT22;3639;51.308;5.624;2022-10-16T08:47:02;15.50;99.90
7196;DHT22;3639;51.308;5.624;2022-10-16T08:49:31;15.60;99.90
7196;DHT22;3639;51.308;5.624;2022-10-16T08:51:57;15.70;99.90
7196;DHT22;3639;51.308;5.624;2022-10-16T08:54:36;15.70;99.90
7196;DHT22;3639;51.308;5.624;2022-10-16T08:57:20;15.80;99.90
7196;DHT22;3639;51.308;5.624;2022-10-16T08:59:47;15.90;99.90
7196;DHT22;3639;51.308;5.624;2022-10-16T09:07:54;16.10;99.90
7196;DHT22;3639;51.308;5.624;2022-10-16T09:16:34;16.30;99.90
7196;DHT22;3639;51.308;5.624;2022-10-16T09:21:37;16.30;99.90
7196;DHT22;3639;51.308;5.624;2022-10-16T09:24:13;16.30;99.90
7196;DHT22;3639;51.308;5.624;2022-10-16T09:26:39;16.30;99.90
7196;DHT22;3639;51.308;5.624;2022-10-16T09:29:05;16.30;99.90
7196;DHT22;3639;51.308;5.624;2022-10-16T09:31:31;16.40;99.90
7196;DHT22;3639;51.308;5.624;2022-10-16T09:34:02;16.50;99.90
7196;DHT22;3639;51.308;5.624;2022-10-16T09:36:39;16.70;99.90
7196;DHT22;3639;51.308;5.624;2022-10-16T09:39:08;16.90;99.90
7196;DHT22;3639;51.308;5.624;2022-10-16T09:41:36;17.00;99.90
7196;DHT22;3639;51.308;5.624;2022-10-16T09:44:03;17.00;99.90
7196;DHT22;3639;51.308;5.624;2022-10-16T09:46:36;17.00;99.90
7196;DHT22;3639;51.308;5.624;2022-10-16T09:49:17;17.10;99.90
7196;DHT22;3639;51.308;5.624;2022-10-16T09:51:43;17.10;99.90
7196;DHT22;3639;51.308;5.624;2022-10-16T09:56:37;17.20;99.90
7196;DHT22;3639;51.308;5.624;2022-10-16T09:59:17;17.20;99.90
7196;DHT22;3639;51.308;5.624;2022-10-16T10:01:46;17.20;99.90
7196;DHT22;3639;51.308;5.624;2022-10-16T10:04:12;17.20;99.90
7196;DHT22;3639;51.308;5.624;2022-10-16T10:06:47;17.20;99.90
7196;DHT22;3639;51.308;5.624;2022-10-16T10:09:28;17.10;99.90
7196;DHT22;3639;51.308;5.624;2022-10-16T10:11:55;17.00;99.90
7196;DHT22;3639;51.308;5.624;2022-10-16T10:17:25;17.10;99.90
7196;DHT22;3639;51.308;5.624;2022-10-16T10:19:55;17.20;99.90
7196;DHT22;3639;51.308;5.624;2022-10-16T10:30:44;17.80;99.90
7196;DHT22;3639;51.308;5.624;2022-10-16T10:33:28;18.00;99.90
7196;DHT22;3639;51.308;5.624;2022-10-16T10:38:54;18.20;99.90
7196;DHT22;3639;51.308;5.624;2022-10-16T10:47:05;18.60;99.90
7196;DHT22;3639;51.308;5.624;2022-10-16T11:01:04;19.10;99.90
7196;DHT22;3639;51.308;5.624;2022-10-16T11:06:26;19.70;99.90
7196;DHT22;3639;51.308;5.624;2022-10-16T11:08:58;19.90;99.90
7196;DHT22;3639;51.308;5.624;2022-10-16T11:11:47;20.00;99.90
7196;DHT22;3639;51.308;5.624;2022-10-16T11:14:26;20.10;99.90
7196;DHT22;3639;51.308;5.624;2022-10-16T11:17:07;20.00;99.90
7196;DHT22;3639;51.308;5.624;2022-10-16T11:22:32;20.10;99.90
7196;DHT22;3639;51.308;5.624;2022-10-16T11:25:26;20.30;99.90
7196;DHT22;3639;51.308;5.624;2022-10-16T11:28:02;20.40;99.90
7196;DHT22;3639;51.308;5.624;2022-10-16T11:30:31;20.30;99.90
7196;DHT22;3639;51.308;5.624;2022-10-16T11:38:17;20.60;99.90
7196;DHT22;3639;51.308;5.624;2022-10-16T11:40:47;20.70;99.90
7196;DHT22;3639;51.308;5.624;2022-10-16T11:43:20;20.90;99.90
7196;DHT22;3639;51.308;5.624;2022-10-16T11:45:52;20.90;99.90
7196;DHT22;3639;51.308;5.624;2022-10-16T11:48:41;20.90;99.90
7196;DHT22;3639;51.308;5.624;2022-10-16T11:51:16;20.80;99.90
7196;DHT22;3639;51.308;5.624;2022-10-16T11:56:23;20.80;99.90
7196;DHT22;3639;51.308;5.624;2022-10-16T11:59:20;20.80;99.90
7196;DHT22;3639;51.308;5.624;2022-10-16T12:04:53;20.60;99.90
7196;DHT22;3639;51.308;5.624;2022-10-16T12:07:30;20.50;99.90
7196;DHT22;3639;51.308;5.624;2022-10-16T12:10:10;20.40;99.90
7196;DHT22;3639;51.308;5.624;2022-10-16T12:15:26;20.40;99.90
7196;DHT22;3639;51.308;5.624;2022-10-16T12:17:52;20.30;99.90
7196;DHT22;3639;51.308;5.624;2022-10-16T12:20:38;20.20;99.90
7196;DHT22;3639;51.308;5.624;2022-10-16T12:23:20;20.20;99.90
7196;DHT22;3639;51.308;5.624;2022-10-16T12:25:57;20.10;99.90
7196;DHT22;3639;51.308;5.624;2022-10-16T12:28:27;19.80;99.90
7196;DHT22;3639;51.308;5.624;2022-10-16T12:33:26;19.40;99.90
7196;DHT22;3639;51.308;5.624;2022-10-16T12:35:52;19.30;99.90
7196;DHT22;3639;51.308;5.624;2022-10-16T12:41:03;19.30;99.90
7196;DHT22;3639;51.308;5.624;2022-10-16T12:46:20;19.40;99.90
7196;DHT22;3639;51.308;5.624;2022-10-16T12:48:46;19.30;99.90
7196;DHT22;3639;51.308;5.624;2022-10-16T12:59:48;19.10;99.90
7196;DHT22;3639;51.308;5.624;2022-10-16T13:05:21;18.90;99.90
7196;DHT22;3639;51.308;5.624;2022-10-16T13:11:08;18.90;99.90
7196;DHT22;3639;51.308;5.624;2022-10-16T13:13:48;19.00;99.90
7196;DHT22;3639;51.308;5.624;2022-10-16T13:16:48;19.10;99.90
7196;DHT22;3639;51.308;5.624;2022-10-16T13:19:27;19.20;99.90
7196;DHT22;3639;51.308;5.624;2022-10-16T13:22:13;19.30;99.90
7196;DHT22;3639;51.308;5.624;2022-10-16T13:28:10;19.30;99.90
7196;DHT22;3639;51.308;5.624;2022-10-16T13:30:38;19.30;99.90
7196;DHT22;3639;51.308;5.624;2022-10-16T13:33:30;19.30;99.90
7196;DHT22;3639;51.308;5.624;2022-10-16T13:35:57;19.20;99.90
7196;DHT22;3639;51.308;5.624;2022-10-16T13:38:25;19.20;99.90
7196;DHT22;3639;51.308;5.624;2022-10-16T13:40:59;19.20;99.90
7196;DHT22;3639;51.308;5.624;2022-10-16T13:43:38;19.20;99.90
7196;DHT22;3639;51.308;5.624;2022-10-16T13:46:07;19.20;99.90
7196;DHT22;3639;51.308;5.624;2022-10-16T13:48:37;19.20;99.90
7196;DHT22;3639;51.308;5.624;2022-10-16T13:51:22;19.20;99.90
7196;DHT22;3639;51.308;5.624;2022-10-16T13:53:48;19.20;99.90
7196;DHT22;3639;51.308;5.624;2022-10-16T13:56:17;19.20;99.90
7196;DHT22;3639;51.308;5.624;2022-10-16T13:58:44;19.20;99.90
7196;DHT22;3639;51.308;5.624;2022-10-16T14:01:30;19.10;99.90
7196;DHT22;3639;51.308;5.624;2022-10-16T14:04:06;19.20;99.90
7196;DHT22;3639;51.308;5.624;2022-10-16T14:06:33;19.10;99.90
7196;DHT22;3639;51.308;5.624;2022-10-16T14:09:09;19.10;99.90
7196;DHT22;3639;51.308;5.624;2022-10-16T14:11:44;19.10;99.90
7196;DHT22;3639;51.308;5.624;2022-10-16T14:14:12;19.00;99.90
7196;DHT22;3639;51.308;5.624;2022-10-16T14:16:40;19.00;99.90
7196;DHT22;3639;51.308;5.624;2022-10-16T14:19:06;18.90;99.90
7196;DHT22;3639;51.308;5.624;2022-10-16T14:21:40;18.90;99.90
7196;DHT22;3639;51.308;5.624;2022-10-16T14:24:13;18.80;99.90
7196;DHT22;3639;51.308;5.624;2022-10-16T14:26:47;18.80;99.90
7196;DHT22;3639;51.308;5.624;2022-10-16T14:29:18;18.90;99.90
7196;DHT22;3639;51.308;5.624;2022-10-16T14:31:58;18.90;99.90
7196;DHT22;3639;51.308;5.624;2022-10-16T14:36:50;18.80;99.90
7196;DHT22;3639;51.308;5.624;2022-10-16T14:39:21;18.80;99.90
7196;DHT22;3639;51.308;5.624;2022-10-16T14:41:50;18.70;99.90
7196;DHT22;3639;51.308;5.624;2022-10-16T14:44:23;18.70;99.90
7196;DHT22;3639;51.308;5.624;2022-10-16T14:46:50;18.60;99.90
7196;DHT22;3639;51.308;5.624;2022-10-16T14:49:18;18.60;99.90
7196;DHT22;3639;51.308;5.624;2022-10-16T14:51:46;18.60;99.90
7196;DHT22;3639;51.308;5.624;2022-10-16T14:54:13;18.70;99.90
7196;DHT22;3639;51.308;5.624;2022-10-16T14:59:19;18.70;99.90
7196;DHT22;3639;51.308;5.624;2022-10-16T15:01:46;18.70;99.90
7196;DHT22;3639;51.308;5.624;2022-10-16T15:04:12;18.70;99.90
7196;DHT22;3639;51.308;5.624;2022-10-16T15:06:38;18.70;99.90
7196;DHT22;3639;51.308;5.624;2022-10-16T15:09:04;18.70;99.90
7196;DHT22;3639;51.308;5.624;2022-10-16T15:11:31;18.70;99.90
7196;DHT22;3639;51.308;5.624;2022-10-16T15:13:57;18.70;99.90
7196;DHT22;3639;51.308;5.624;2022-10-16T15:16:23;18.70;99.90
7196;DHT22;3639;51.308;5.624;2022-10-16T15:18:49;18.70;99.90
7196;DHT22;3639;51.308;5.624;2022-10-16T15:21:28;18.70;99.90
7196;DHT22;3639;51.308;5.624;2022-10-16T15:23:54;18.70;99.90
7196;DHT22;3639;51.308;5.624;2022-10-16T15:26:22;18.60;99.90
7196;DHT22;3639;51.308;5.624;2022-10-16T15:28:48;18.50;99.90
7196;DHT22;3639;51.308;5.624;2022-10-16T15:31:13;18.50;99.90
7196;DHT22;3639;51.308;5.624;2022-10-16T15:33:39;18.40;99.90
7196;DHT22;3639;51.308;5.624;2022-10-16T15:36:05;18.40;99.90
7196;DHT22;3639;51.308;5.624;2022-10-16T15:38:30;18.30;99.90
7196;DHT22;3639;51.308;5.624;2022-10-16T15:40:56;18.30;99.90
7196;DHT22;3639;51.308;5.624;2022-10-16T15:43:22;18.30;99.90
7196;DHT22;3639;51.308;5.624;2022-10-16T15:46:02;18.30;99.90
7196;DHT22;3639;51.308;5.624;2022-10-16T15:48:29;18.30;99.90
7196;DHT22;3639;51.308;5.624;2022-10-16T15:50:55;18.20;99.90
7196;DHT22;3639;51.308;5.624;2022-10-16T15:53:21;18.20;99.90
7196;DHT22;3639;51.308;5.624;2022-10-16T15:55:47;18.20;99.90
7196;DHT22;3639;51.308;5.624;2022-10-16T15:58:12;18.20;99.90
7196;DHT22;3639;51.308;5.624;2022-10-16T16:00:38;18.20;99.90
7196;DHT22;3639;51.308;5.624;2022-10-16T16:03:04;18.10;99.90
7196;DHT22;3639;51.308;5.624;2022-10-16T16:05:30;18.00;99.90
7196;DHT22;3639;51.308;5.624;2022-10-16T16:07:56;17.90;99.90
7196;DHT22;3639;51.308;5.624;2022-10-16T16:10:22;17.90;99.90
7196;DHT22;3639;51.308;5.624;2022-10-16T16:12:48;17.80;99.90
7196;DHT22;3639;51.308;5.624;2022-10-16T16:15:17;17.70;99.90
7196;DHT22;3639;51.308;5.624;2022-10-16T16:17:42;17.70;99.90
7196;DHT22;3639;51.308;5.624;2022-10-16T16:20:10;17.60;99.90
7196;DHT22;3639;51.308;5.624;2022-10-16T16:22:36;17.60;99.90
7196;DHT22;3639;51.308;5.624;2022-10-16T16:25:01;17.60;99.90
7196;DHT22;3639;51.308;5.624;2022-10-16T16:27:27;17.50;99.90
7196;DHT22;3639;51.308;5.624;2022-10-16T16:29:55;17.40;99.90
7196;DHT22;3639;51.308;5.624;2022-10-16T16:32:21;17.30;99.90
7196;DHT22;3639;51.308;5.624;2022-10-16T16:34:47;17.20;99.90
7196;DHT22;3639;51.308;5.624;2022-10-16T16:37:12;17.20;99.90
7196;DHT22;3639;51.308;5.624;2022-10-16T16:39:38;17.20;99.90
7196;DHT22;3639;51.308;5.624;2022-10-16T16:42:04;17.10;99.90
7196;DHT22;3639;51.308;5.624;2022-10-16T16:44:31;17.10;99.90
7196;DHT22;3639;51.308;5.624;2022-10-16T16:46:57;17.10;99.90
7196;DHT22;3639;51.308;5.624;2022-10-16T16:49:23;17.10;99.90
7196;DHT22;3639;51.308;5.624;2022-10-16T16:51:49;17.00;99.90
7196;DHT22;3639;51.308;5.624;2022-10-16T16:54:14;17.00;99.90
7196;DHT22;3639;51.308;5.624;2022-10-16T16:56:41;16.90;99.90
7196;DHT22;3639;51.308;5.624;2022-10-16T16:59:13;16.90;99.90
7196;DHT22;3639;51.308;5.624;2022-10-16T17:01:39;16.90;99.90
7196;DHT22;3639;51.308;5.624;2022-10-16T17:04:05;16.90;99.90
7196;DHT22;3639;51.308;5.624;2022-10-16T17:06:31;16.90;99.90
7196;DHT22;3639;51.308;5.624;2022-10-16T17:08:57;16.80;99.90
7196;DHT22;3639;51.308;5.624;2022-10-16T17:11:25;16.80;99.90
7196;DHT22;3639;51.308;5.624;2022-10-16T17:13:53;16.80;99.90
7196;DHT22;3639;51.308;5.624;2022-10-16T17:16:19;16.80;99.90
7196;DHT22;3639;51.308;5.624;2022-10-16T17:18:46;16.70;99.90
7196;DHT22;3639;51.308;5.624;2022-10-16T17:21:12;16.70;99.90
7196;DHT22;3639;51.308;5.624;2022-10-16T17:23:38;16.60;99.90
7196;DHT22;3639;51.308;5.624;2022-10-16T17:26:09;16.50;99.90
7196;DHT22;3639;51.308;5.624;2022-10-16T17:28:36;16.50;99.90
7196;DHT22;3639;51.308;5.624;2022-10-16T17:31:13;16.50;99.90
7196;DHT22;3639;51.308;5.624;2022-10-16T17:33:39;16.40;99.90
7196;DHT22;3639;51.308;5.624;2022-10-16T17:36:05;16.40;99.90
7196;DHT22;3639;51.308;5.624;2022-10-16T17:38:31;16.40;99.90
7196;DHT22;3639;51.308;5.624;2022-10-16T17:40:57;16.40;99.90
7196;DHT22;3639;51.308;5.624;2022-10-16T17:43:23;16.40;99.90
7196;DHT22;3639;51.308;5.624;2022-10-16T17:45:48;16.30;99.90
7196;DHT22;3639;51.308;5.624;2022-10-16T17:48:14;16.30;99.90
7196;DHT22;3639;51.308;5.624;2022-10-16T17:50:41;16.30;99.90
7196;DHT22;3639;51.308;5.624;2022-10-16T17:53:07;16.30;99.90
7196;DHT22;3639;51.308;5.624;2022-10-16T17:55:40;16.30;99.90
7196;DHT22;3639;51.308;5.624;2022-10-16T17:58:07;16.30;99.90
7196;DHT22;3639;51.308;5.624;2022-10-16T18:00:33;16.30;99.90
7196;DHT22;3639;51.308;5.624;2022-10-16T18:02:59;16.30;99.90
7196;DHT22;3639;51.308;5.624;2022-10-16T18:05:25;16.30;99.90
7196;DHT22;3639;51.308;5.624;2022-10-16T18:07:51;16.30;99.90
7196;DHT22;3639;51.308;5.624;2022-10-16T18:10:17;16.30;99.90
7196;DHT22;3639;51.308;5.624;2022-10-16T18:12:43;16.30;99.90
7196;DHT22;3639;51.308;5.624;2022-10-16T18:15:09;16.40;99.90